Aérodrome :
LOGIN :

S'inscrire | Disclaimer

   EN    FR    IT 

 










Légende :    VFR   VFR Marginal   IFR   IFR Intensif   IFR Très Intensif
Visi : 
Plafond : 
>= 8 km
>= 3000ft
5 à 8 km
1000 à 3000 ft
1500m à 5 km
500 à 1000 ft
800 à 1500m
200 à 500 ft
< 800m
< 200 ft
Symboles :   Orages  Brouillard  Fortes neiges  Fortes précipitations  Vent > 20 kt
SIGMETs :   Divers  Orages  Givrage  Turbulence  Onde Orograph.  Cendres Volcan.






- Altitude de l'aérodrome : 49 ft
- Code IATA : SEN


EGMC - Southend

DERNIER METAR :
  • 241150Z 22022G32KT 9999 -RA SCT014 BKN018 11/09 Q1007

METARs EXPIRÉS :
  • 241120Z 23023KT 9999 BKN015 11/09 Q1007
  • 241050Z 23023KT 9999 BKN016 11/09 Q1008
  • 241020Z 23023KT 9999 BKN017 11/09 Q1008
  • 240950Z 22023KT 9999 BKN020 BKN041 11/09 Q1008
  • 240920Z 23023KT 9999 BKN020 11/09 Q1009
  • 240850Z 22022KT 9999 BKN021 10/08 Q1009

TAF TAF EGMC
Valide du 24 à 12h jusqu'au 24 à 21h UTC


241105Z 2412/2421 22020G32KT 9999 SCT016
TEMPO 2412/2416 4000 -RADZ BKN008
BECMG 2418/2421 27012KT



MET'MAP, la Météo Aéronautique d'un coup d'oeil ! - Copyright ORBIFLY Décembre 2007 - Disclaimer

ORBIFLY MET'MAP TEAM :

Programmation & Développement : Alexandra Zaïnal
Sur une idée originale de : Baudouin d'Aumeries
Assistance à la programmation : Marc-Olivier Méhu
Soutien technique & logistique : Manuel Goepfert

Contact : metmap@orbifly.com




SOURCES & CREDITS :

   NOAA